Date,TemperatureHighF,TemperatureAvgF,TemperatureLowF,DewpointHighF,DewpointAvgF,DewpointLowF,HumidityHigh,HumidityAvg,HumidityLow,PressureMaxIn,PressureMinIn,WindSpeedMaxMPH,WindSpeedAvgMPH,GustSpeedMaxMPH,PrecipitationSumIn
2013-11-1,59.9,45.8,32.4,42.4,31.2,18.3,100,65,21,30.34,30.01,11,1,0,0.00
2013-11-2,53.2,45.0,35.1,34.6,23.3,3.8,82,44,17,30.11,29.82,34,10,0,0.00
2013-11-3,44.8,38.6,33.3,32.4,20.3,2.3,94,51,19,30.16,30.08,16,5,0,0.04
2013-11-4,49.6,41.1,34.8,32.5,23.7,12.1,87,52,25,30.18,30.13,13,2,0,0.00
2013-11-5,54.2,47.2,40.7,36.0,28.1,22.7,63,48,34,30.23,30.15,15,7,0,0.00
2013-11-6,56.0,48.5,42.3,46.0,36.6,24.9,100,65,38,30.30,30.18,10,3,0,0.00
2013-11-7,54.1,45.8,41.4,47.8,28.7,7.4,100,58,20,30.18,29.95,18,6,0,0.08
2013-11-8,49.8,42.9,36.2,36.5,22.3,6.4,96,47,18,30.19,30.14,13,2,0,0.00
2013-11-9,43.4,37.7,30.2,35.6,28.0,20.4,100,72,41,30.18,30.12,4,1,0,0.00
2013-11-10,51.2,42.4,35.4,40.1,32.2,20.9,100,71,36,30.23,30.14,6,1,0,0.00
2013-11-11,43.7,40.7,38.4,41.2,35.8,30.6,100,84,62,30.32,30.22,9,1,0,0.00
2013-11-12,61.1,46.2,39.8,44.3,34.5,24.6,100,67,29,30.43,30.23,9,1,0,0.00
2013-11-13,57.2,42.4,33.8,44.2,32.9,21.0,100,75,29,30.48,30.31,7,1,0,0.00
2013-11-14,45.3,37.2,31.5,35.5,27.5,17.1,100,73,33,30.31,30.11,7,1,0,0.00
2013-11-15,44.6,35.8,27.1,32.7,22.2,11.7,100,63,29,30.13,29.58,21,5,0,0.00
2013-11-16,45.9,41.6,38.1,26.8,19.7,9.3,58,42,24,29.89,29.54,22,8,0,0.00
2013-11-17,51.8,43.9,39.5,23.1,18.4,9.8,49,37,20,30.07,29.89,22,8,0,0.00
2013-11-18,53.4,46.4,40.0,27.6,18.6,10.9,47,33,18,30.06,29.83,15,6,0,0.00
2013-11-19,53.3,47.5,38.6,40.2,30.3,23.4,80,52,35,29.94,29.79,14,7,0,0.00
2013-11-20,38.9,32.5,21.7,29.2,-1.6,-23.0,69,28,8,30.47,29.94,19,7,0,0.00
2013-11-21,33.9,24.1,15.5,9.0,-4.4,-23.6,67,34,9,30.72,30.47,10,1,0,1.00
2013-11-22,32.4,23.0,13.9,15.9,0.9,-20.3,92,45,10,30.77,30.61,10,1,0,0.00
2013-11-23,33.6,24.1,14.9,20.8,9.8,-12.2,100,62,13,30.65,30.39,5,1,0,0.00
2013-11-24,42.0,28.3,17.0,25.0,12.6,-9.8,100,62,11,30.40,30.24,5,1,0,0.00
2013-11-25,42.6,30.4,20.5,28.6,16.8,-2.1,100,66,17,30.48,30.34,6,1,0,0.00
2013-11-26,40.1,30.6,23.1,28.3,18.8,3.1,100,69,22,30.40,30.20,5,1,0,0.00
2013-11-27,39.4,30.4,25.1,29.3,22.0,11.0,100,76,35,30.23,30.12,5,0,0,0.00
2013-11-28,41.6,30.7,22.9,30.7,21.4,10.0,100,74,28,30.27,30.16,6,1,0,0.00
2013-11-29,49.1,36.0,24.0,29.6,19.9,4.9,100,60,18,30.34,30.22,7,1,0,0.00
2013-11-30,56.8,46.6,37.5,35.0,16.4,-11.4,88,39,7,30.38,30.23,10,2,0,0.00